Dmitrov, Russia
Current Conditions -  °F | °C
As of 1:30 PM on Thursday 18 Dec 2014 (Local Time) from UUEE Reporting Station
Overcast Overcast  
Wind Chill: 24°   Ceiling: 1000
Heat Index: 34°   Visibility: 6mi
Dew Point: 32°   Wind: 13mph
Humidity: 93%   Direction: 210°SSW
Pressure: 29.71"   Gusts: 27mph
Location:  56.35°N, 37.52°E
Report Text: UUEE 181030Z 21006G12MPS 9999 OVC010 01/M00 Q1006 7551024525510245 NOSIG
Loading
Personal Weather Stations






























Interactive Weather Map New forecast layout! Learn more

10-Day Weather Forecast

Advertisements
Track Severe Weather on mobile